Terminal Aerodrome Forecast
Issued by NWS Cleveland, OH

Home | Current Version | Previous Version | Text Only | Print | Product List | Glossary On
Versions: 1 2 3 4 5 6 7 8 9 10 11 12 13 14 15 16 17 18 19 20 21 22 23 24
727
FTUS41 KCLE 232338
TAFERI
TAF
KERI 232338Z 2400/2424 25012G20KT 4SM -RA OVC005
     FM240200 27008KT P6SM OVC010
     FM240700 31004KT P6SM OVC025
     FM241500 04008KT P6SM OVC035
     FM242200 10010KT P6SM OVC050=

USA.gov is the U.S. government's official web portal to all federal, state and local government web resources and services.